Time;durP1;ratioP1;P1;durP2;ratioP2;P2;SDS_P1;SDS_P2;PMS_P1;PMS_P2;Temp;Humidity;BMP_temperature;BMP_pressure;BME280_temperature;BME280_humidity;BME280_pressure;Samples;Min_cycle;Max_cycle;Signal;HPM_P1;HPM_P2
2023/10/19 00:00:40;;;;;;;17.75;9.35;;;8.00;99.90;;;;;;4984142;28;20573;-78
2023/10/19 00:03:07;;;;;;;16.13;8.77;;;8.00;99.90;;;;;;4972721;28;20047;-78
2023/10/19 00:05:35;;;;;;;15.98;8.40;;;8.10;99.90;;;;;;4963650;28;20050;-78
2023/10/19 00:08:21;;;;;;;17.38;8.57;;;8.00;99.90;;;;;;4987120;28;20539;-78
2023/10/19 00:11:21;;;;;;;17.80;8.70;;;8.10;99.90;;;;;;4972052;28;20078;-78
2023/10/19 00:13:39;;;;;;;16.40;8.80;;;8.20;99.90;;;;;;4987408;28;20054;-78
2023/10/19 00:16:13;;;;;;;19.98;9.45;;;8.10;99.90;;;;;;4984133;28;20133;-78
2023/10/19 00:18:42;;;;;;;19.40;9.70;;;8.10;99.90;;;;;;4973206;28;22553;-78
2023/10/19 00:21:25;;;;;;;18.60;9.93;;;8.10;99.90;;;;;;4967619;28;20058;-78
2023/10/19 00:23:57;;;;;;;19.35;10.07;;;8.10;99.90;;;;;;4969779;28;20054;-78
2023/10/19 00:26:26;;;;;;;22.80;9.27;;;8.10;99.90;;;;;;4982287;28;20053;-78
2023/10/19 00:28:59;;;;;;;19.55;9.88;;;8.10;99.90;;;;;;4987117;28;20446;-78
2023/10/19 00:31:27;;;;;;;20.20;9.23;;;8.20;99.90;;;;;;4971359;28;20089;-78
2023/10/19 00:33:57;;;;;;;20.40;10.35;;;8.10;99.90;;;;;;4997683;28;20121;-78
2023/10/19 00:36:26;;;;;;;25.88;11.43;;;8.10;99.90;;;;;;4991138;28;20501;-78
2023/10/19 00:38:53;;;;;;;23.48;12.07;;;8.20;99.90;;;;;;4985911;28;20046;-78
2023/10/19 00:41:31;;;;;;;24.92;11.68;;;8.20;99.90;;;;;;4988176;28;20043;-78
2023/10/19 00:44:22;;;;;;;24.30;12.20;;;8.20;99.90;;;;;;4966276;28;20498;-78
2023/10/19 00:47:03;;;;;;;21.88;11.35;;;8.20;99.90;;;;;;4985606;28;20050;-78
2023/10/19 00:49:32;;;;;;;23.90;11.55;;;8.20;99.90;;;;;;4983318;28;20054;-78
2023/10/19 00:52:19;;;;;;;21.85;11.15;;;8.20;99.90;;;;;;4987664;28;20050;-78
2023/10/19 00:54:55;;;;;;;18.42;10.38;;;8.20;99.90;;;;;;4988051;28;20042;-78
2023/10/19 00:57:33;;;;;;;17.50;9.82;;;8.30;99.90;;;;;;4986405;28;20050;-78
2023/10/19 01:00:11;;;;;;;19.17;9.25;;;8.30;99.90;;;;;;4980591;28;20514;-78
2023/10/19 01:02:46;;;;;;;16.30;9.13;;;8.30;99.90;;;;;;4983647;28;20054;-78
2023/10/19 01:05:13;;;;;;;18.25;8.52;;;8.30;99.90;;;;;;4992690;28;20104;-78
2023/10/19 01:07:44;;;;;;;20.55;8.57;;;8.30;99.90;;;;;;4983769;28;22639;-78
2023/10/19 01:10:12;;;;;;;21.75;8.50;;;8.30;99.90;;;;;;4985427;28;20034;-78
2023/10/19 01:12:39;;;;;;;21.90;9.98;;;8.30;99.90;;;;;;4989096;28;20065;-79
2023/10/19 01:15:13;;;;;;;19.38;8.57;;;8.30;99.90;;;;;;4986826;28;20042;-78
2023/10/19 01:17:43;;;;;;;20.05;9.73;;;8.30;99.90;;;;;;5003862;28;21927;-78
2023/10/19 01:21:04;;;;;;;16.38;8.20;;;8.30;99.90;;;;;;4986550;28;20112;-78
2023/10/19 01:31:17;;;;;;;19.65;9.23;;;8.40;99.90;;;;;;4984256;28;20081;-78
2023/10/19 01:33:45;;;;;;;19.83;9.88;;;8.40;99.90;;;;;;4996951;28;20398;-78
2023/10/19 01:38:49;;;;;;;18.90;10.23;;;8.40;99.90;;;;;;4999622;28;20070;-78
2023/10/19 01:41:19;;;;;;;16.77;9.48;;;8.40;99.90;;;;;;4983624;28;20056;-78
2023/10/19 01:43:49;;;;;;;16.60;9.55;;;8.40;99.90;;;;;;4985807;28;20059;-78
2023/10/19 01:46:36;;;;;;;18.50;9.00;;;8.40;99.90;;;;;;5002625;28;20395;-78
2023/10/19 01:49:04;;;;;;;19.58;9.68;;;8.40;99.90;;;;;;4985282;28;20062;-78
2023/10/19 01:51:36;;;;;;;19.65;11.38;;;8.40;99.90;;;;;;4988111;28;22425;-78
2023/10/19 01:54:04;;;;;;;21.50;10.27;;;8.40;99.90;;;;;;4986397;28;20101;-78
2023/10/19 01:56:35;;;;;;;19.42;10.10;;;8.40;99.90;;;;;;4963046;28;20502;-78
2023/10/19 01:59:09;;;;;;;21.23;10.55;;;8.40;99.90;;;;;;4985017;28;20478;-78
2023/10/19 02:01:37;;;;;;;21.95;11.45;;;8.40;99.90;;;;;;4981475;28;20046;-78
2023/10/19 02:04:05;;;;;;;22.83;10.50;;;8.40;99.90;;;;;;4988366;28;20525;-78
2023/10/19 02:09:50;;;;;;;22.33;11.07;;;8.40;99.90;;;;;;4983792;28;20058;-78
2023/10/19 02:11:57;;;;;;;24.30;12.80;;;8.40;99.90;;;;;;5000610;28;20121;-78
2023/10/19 02:14:28;;;;;;;23.50;11.75;;;8.40;99.90;;;;;;4961608;28;20532;-78
2023/10/19 02:16:58;;;;;;;22.85;12.48;;;8.40;99.90;;;;;;4970560;28;20046;-77
2023/10/19 02:19:28;;;;;;;22.98;12.80;;;8.40;99.90;;;;;;4973655;28;20051;-76
2023/10/19 02:21:58;;;;;;;22.88;11.90;;;8.30;99.90;;;;;;4974772;28;20121;-76
2023/10/19 02:24:26;;;;;;;21.45;11.63;;;8.40;99.90;;;;;;4973559;28;20049;-76
2023/10/19 02:26:55;;;;;;;23.35;12.40;;;8.40;99.90;;;;;;4983051;28;20050;-76
2023/10/19 02:29:23;;;;;;;24.25;12.48;;;8.30;99.90;;;;;;5003307;28;21345;-76
2023/10/19 02:31:50;;;;;;;24.13;13.13;;;8.30;99.90;;;;;;4986960;28;20042;-76
2023/10/19 02:34:18;;;;;;;28.40;13.68;;;8.30;99.90;;;;;;4987465;28;20960;-76
2023/10/19 02:36:47;;;;;;;23.45;12.73;;;8.30;99.90;;;;;;4972779;28;20144;-76
2023/10/19 02:39:17;;;;;;;27.80;13.85;;;8.30;99.90;;;;;;4971273;28;20073;-76
2023/10/19 02:41:47;;;;;;;26.10;14.18;;;8.20;99.90;;;;;;4989155;28;20046;-76
2023/10/19 02:44:22;;;;;;;26.83;14.35;;;8.20;99.90;;;;;;4976041;28;20196;-76
2023/10/19 02:46:58;;;;;;;26.55;13.55;;;8.30;99.90;;;;;;4987003;28;20058;-76
2023/10/19 02:49:29;;;;;;;23.95;14.05;;;8.20;99.90;;;;;;4989399;28;20116;-76
2023/10/19 02:52:03;;;;;;;29.60;14.18;;;8.20;99.90;;;;;;4989340;28;20858;-77
2023/10/19 02:54:34;;;;;;;36.17;16.23;;;8.20;99.90;;;;;;4988691;28;20117;-76
2023/10/19 02:57:06;;;;;;;28.25;14.48;;;8.20;99.90;;;;;;4981243;28;22410;-77
2023/10/19 02:59:34;;;;;;;28.13;14.27;;;8.10;99.90;;;;;;4989541;28;20145;-77
2023/10/19 03:04:39;;;;;;;28.95;14.90;;;8.00;99.90;;;;;;4987966;28;20050;-77
2023/10/19 03:07:07;;;;;;;27.58;13.95;;;8.00;99.90;;;;;;4986875;28;20121;-76
2023/10/19 03:09:48;;;;;;;27.30;15.18;;;8.00;99.90;;;;;;4972937;28;20058;-76
2023/10/19 03:12:17;;;;;;;35.95;16.35;;;8.00;99.90;;;;;;4987984;28;20050;-77
2023/10/19 03:14:48;;;;;;;28.20;15.57;;;8.00;99.90;;;;;;5003630;28;20057;-76
2023/10/19 03:17:16;;;;;;;30.08;15.60;;;8.00;99.90;;;;;;4988781;28;22741;-77
2023/10/19 03:19:43;;;;;;;27.65;13.27;;;8.00;99.90;;;;;;4989519;28;20078;-78
2023/10/19 03:22:11;;;;;;;25.20;13.55;;;8.00;99.90;;;;;;4987408;28;20046;-76
2023/10/19 03:24:43;;;;;;;26.48;13.75;;;7.90;99.90;;;;;;4986856;28;20132;-76
2023/10/19 03:27:22;;;;;;;30.75;13.68;;;7.90;99.90;;;;;;5001746;28;20089;-77
2023/10/19 03:29:54;;;;;;;24.80;13.38;;;7.90;99.90;;;;;;4985911;28;20055;-77
2023/10/19 03:32:26;;;;;;;;;;;7.90;99.90;;;;;;4986157;28;20042;-76
2023/10/19 03:34:55;;;;;;;24.30;11.80;;;7.80;99.90;;;;;;4982423;28;22645;-78
2023/10/19 03:37:25;;;;;;;23.58;13.00;;;7.80;99.90;;;;;;5003380;28;20038;-76
2023/10/19 03:39:56;;;;;;;25.45;13.40;;;7.90;99.90;;;;;;5000536;28;20042;-76
2023/10/19 03:42:32;;;;;;;27.45;12.88;;;7.90;99.90;;;;;;5003463;28;20042;-76
2023/10/19 03:45:02;;;;;;;26.35;13.35;;;7.90;99.90;;;;;;4988621;28;20046;-76
2023/10/19 03:47:35;;;;;;;25.92;12.82;;;7.80;99.90;;;;;;4991629;28;20046;-77
2023/10/19 03:50:07;;;;;;;28.55;13.50;;;7.80;99.90;;;;;;4991265;28;20062;-77
2023/10/19 03:52:37;;;;;;;28.80;13.37;;;7.90;99.90;;;;;;4986214;28;20049;-76
2023/10/19 03:55:11;;;;;;;26.17;13.43;;;7.90;99.90;;;;;;5002145;28;20295;-76
2023/10/19 03:57:46;;;;;;;24.70;13.05;;;7.90;99.90;;;;;;4981076;28;20151;-77
2023/10/19 04:00:24;;;;;;;26.75;13.50;;;7.80;99.90;;;;;;4988503;28;20149;-76
2023/10/19 04:02:55;;;;;;;26.05;13.23;;;7.80;99.90;;;;;;4989031;28;20101;-77
2023/10/19 04:05:23;;;;;;;31.60;14.70;;;7.80;99.90;;;;;;4984974;28;20056;-76
2023/10/19 04:07:54;;;;;;;27.50;14.32;;;7.80;99.90;;;;;;4989537;28;20066;-76
2023/10/19 04:13:02;;;;;;;28.90;14.55;;;7.90;99.90;;;;;;4987799;28;20061;-76
2023/10/19 04:15:33;;;;;;;27.70;13.23;;;7.90;99.90;;;;;;4986742;28;20065;-76
2023/10/19 04:18:08;;;;;;;26.25;12.90;;;7.90;99.90;;;;;;4987196;28;20086;-76
2023/10/19 04:20:58;;;;;;;27.63;14.45;;;7.90;99.90;;;;;;4988068;28;20061;-76
2023/10/19 04:23:27;;;;;;;27.40;13.82;;;8.00;99.90;;;;;;4989638;28;20070;-76
2023/10/19 04:25:56;;;;;;;24.05;12.90;;;7.90;99.90;;;;;;4984131;28;20068;-77
2023/10/19 04:31:13;;;;;;;23.95;12.57;;;7.90;99.90;;;;;;4981422;28;20050;-76
2023/10/19 04:33:42;;;;;;;26.95;13.95;;;7.90;99.90;;;;;;5002257;28;20049;-76
2023/10/19 04:36:11;;;;;;;24.77;13.45;;;7.80;99.90;;;;;;5003333;28;20379;-76
2023/10/19 04:38:38;;;;;;;29.95;15.07;;;7.80;99.90;;;;;;5003905;28;20129;-76
2023/10/19 04:41:09;;;;;;;27.95;14.10;;;7.80;99.90;;;;;;4983022;28;20514;-75
2023/10/19 04:43:38;;;;;;;27.42;15.13;;;7.70;99.90;;;;;;4987358;28;20141;-76
2023/10/19 04:46:11;;;;;;;26.00;13.80;;;7.70;99.90;;;;;;4999319;28;20046;-77
2023/10/19 04:48:40;;;;;;;21.35;11.23;;;7.70;99.90;;;;;;4986906;28;20044;-76
2023/10/19 04:51:09;;;;;;;27.40;13.93;;;7.80;99.90;;;;;;4979799;28;20046;-76
2023/10/19 04:53:37;;;;;;;29.00;14.90;;;7.70;99.90;;;;;;4985825;28;20081;-76
2023/10/19 04:56:08;;;;;;;28.42;15.32;;;7.70;99.90;;;;;;4987222;28;20046;-76
2023/10/19 04:58:36;;;;;;;30.38;14.57;;;7.70;99.90;;;;;;4985118;28;20042;-76
2023/10/19 05:01:05;;;;;;;31.48;15.15;;;7.80;99.90;;;;;;4983928;28;20046;-76
2023/10/19 05:03:32;;;;;;;30.08;14.15;;;7.80;99.90;;;;;;4986442;28;20068;-76
2023/10/19 05:06:01;;;;;;;31.67;14.55;;;7.80;99.90;;;;;;4998701;28;20141;-78
2023/10/19 05:08:29;;;;;;;29.25;14.57;;;7.80;99.90;;;;;;4986046;28;20046;-77
2023/10/19 05:10:59;;;;;;;28.25;13.07;;;7.80;99.90;;;;;;4988980;28;20054;-79
2023/10/19 05:13:28;;;;;;;24.77;12.57;;;7.80;99.90;;;;;;4963921;28;20066;-77
2023/10/19 05:15:56;;;;;;;26.40;13.70;;;7.80;99.90;;;;;;4977325;28;20148;-77
2023/10/19 05:18:23;;;;;;;22.35;11.93;;;7.80;99.90;;;;;;4979773;28;20054;-77
2023/10/19 05:20:55;;;;;;;27.15;14.50;;;7.80;99.90;;;;;;4970883;28;20132;-76
2023/10/19 05:23:26;;;;;;;30.93;14.83;;;7.80;99.90;;;;;;4985255;28;20054;-76
2023/10/19 05:25:59;;;;;;;30.23;15.05;;;7.70;99.90;;;;;;4968431;28;20133;-77
2023/10/19 05:28:26;;;;;;;28.27;14.38;;;7.70;99.90;;;;;;4966667;28;20046;-77
2023/10/19 05:30:54;;;;;;;29.55;14.30;;;7.70;99.90;;;;;;4984927;28;20174;-76
2023/10/19 05:33:23;;;;;;;31.70;15.82;;;7.80;99.90;;;;;;4964815;28;20458;-75
2023/10/19 05:35:51;;;;;;;29.75;14.50;;;7.90;99.90;;;;;;4976840;28;21230;-76
2023/10/19 05:38:22;;;;;;;30.00;15.43;;;7.90;99.90;;;;;;4982379;28;20056;-77
2023/10/19 05:40:52;;;;;;;36.35;17.92;;;7.90;99.90;;;;;;4982559;28;20065;-77
2023/10/19 05:43:19;;;;;;;34.40;17.20;;;7.90;99.90;;;;;;4961882;28;20612;-77
2023/10/19 05:45:49;;;;;;;33.25;16.88;;;7.90;99.90;;;;;;4982807;28;21052;-77
2023/10/19 05:48:17;;;;;;;33.70;15.98;;;8.00;99.90;;;;;;4993998;28;20132;-77
2023/10/19 05:50:44;;;;;;;35.45;17.10;;;7.90;99.90;;;;;;4986709;28;20038;-77
2023/10/19 05:53:11;;;;;;;35.60;17.48;;;7.90;99.90;;;;;;5001680;28;20081;-76
2023/10/19 05:55:39;;;;;;;31.23;16.17;;;8.00;99.90;;;;;;4947277;28;20133;-76
2023/10/19 05:58:06;;;;;;;34.33;17.80;;;8.00;99.90;;;;;;4943427;28;20820;-76
2023/10/19 06:00:34;;;;;;;40.05;20.45;;;8.00;99.90;;;;;;4943125;28;20113;-77
2023/10/19 06:03:02;;;;;;;43.03;22.42;;;8.00;99.90;;;;;;4949814;28;20454;-76
2023/10/19 06:05:30;;;;;;;44.55;23.85;;;8.10;99.90;;;;;;4954323;28;20057;-77
2023/10/19 06:07:59;;;;;;;33.85;16.92;;;8.10;99.90;;;;;;4922880;28;20709;-77
2023/10/19 06:10:28;;;;;;;31.33;16.75;;;8.00;99.90;;;;;;4968018;28;20046;-76
2023/10/19 06:12:57;;;;;;;33.88;16.58;;;8.00;99.90;;;;;;4950500;28;20046;-77
2023/10/19 06:15:24;;;;;;;31.15;15.88;;;8.00;99.90;;;;;;4951305;28;22000;-76
2023/10/19 06:17:52;;;;;;;31.55;15.95;;;8.00;99.90;;;;;;4953083;28;20066;-76
2023/10/19 06:20:23;;;;;;;27.02;13.43;;;8.10;99.90;;;;;;4942378;28;20065;-77
2023/10/19 06:23:04;;;;;;;32.78;15.52;;;8.00;99.90;;;;;;4942951;28;20050;-76
2023/10/19 06:25:34;;;;;;;33.47;16.25;;;8.10;99.90;;;;;;4941941;28;20180;-76
2023/10/19 06:28:02;;;;;;;29.40;14.98;;;8.10;99.90;;;;;;4926021;28;20089;-77
2023/10/19 06:30:29;;;;;;;30.77;16.27;;;8.10;99.90;;;;;;4942266;28;20057;-77
2023/10/19 06:33:01;;;;;;;34.83;16.63;;;8.20;99.90;;;;;;4959469;28;20077;-76
2023/10/19 06:35:33;;;;;;;32.17;16.60;;;8.20;99.90;;;;;;4966249;28;20043;-76
2023/10/19 06:38:01;;;;;;;32.05;16.90;;;8.20;99.90;;;;;;4946270;28;20192;-76
2023/10/19 06:40:28;;;;;;;34.53;16.88;;;8.20;99.90;;;;;;4921926;28;20084;-76
2023/10/19 06:42:57;;;;;;;28.73;15.00;;;8.20;99.90;;;;;;4960784;28;20054;-76
2023/10/19 06:45:29;;;;;;;28.25;14.23;;;8.30;99.90;;;;;;4928006;28;20707;-77
2023/10/19 06:47:57;;;;;;;28.70;14.30;;;8.20;99.90;;;;;;4942516;28;20179;-76
2023/10/19 06:50:25;;;;;;;31.08;14.73;;;8.30;99.90;;;;;;4956703;28;20149;-76
2023/10/19 06:52:54;;;;;;;27.90;12.85;;;8.30;99.90;;;;;;4953093;28;20717;-77
2023/10/19 06:55:22;;;;;;;25.83;13.65;;;8.30;99.90;;;;;;4976948;28;20162;-76
2023/10/19 06:57:52;;;;;;;25.15;12.60;;;8.30;99.90;;;;;;4943168;28;20058;-76
2023/10/19 07:00:22;;;;;;;26.48;12.60;;;8.30;99.90;;;;;;4940539;28;20575;-76
2023/10/19 07:02:51;;;;;;;24.98;12.50;;;8.20;99.90;;;;;;4958939;28;20188;-76
2023/10/19 07:05:21;;;;;;;29.42;14.50;;;8.20;99.90;;;;;;4934529;28;20042;-76
2023/10/19 07:07:51;;;;;;;28.33;13.77;;;8.20;99.90;;;;;;4962858;28;20046;-76
2023/10/19 07:10:19;;;;;;;26.27;14.00;;;8.30;99.90;;;;;;4928342;28;20054;-77
2023/10/19 07:12:54;;;;;;;25.33;11.93;;;8.30;99.90;;;;;;4940266;28;20430;-77
2023/10/19 07:15:25;;;;;;;21.85;11.63;;;8.30;99.90;;;;;;4935196;28;20050;-76
2023/10/19 07:17:56;;;;;;;25.17;12.40;;;8.30;99.90;;;;;;4940682;28;20147;-78
2023/10/19 07:20:28;;;;;;;26.48;12.50;;;8.30;99.90;;;;;;4935307;28;20057;-76
2023/10/19 07:22:59;;;;;;;26.08;12.73;;;8.30;99.90;;;;;;4963527;28;20181;-76
2023/10/19 07:25:26;;;;;;;22.42;10.88;;;8.40;99.90;;;;;;4942526;28;20046;-76
2023/10/19 07:27:54;;;;;;;24.42;12.40;;;8.40;99.90;;;;;;4964919;28;20124;-76
2023/10/19 07:30:25;;;;;;;25.98;12.50;;;8.40;99.90;;;;;;4946587;28;20061;-76
2023/10/19 07:32:58;;;;;;;23.73;11.95;;;8.40;99.90;;;;;;4953066;28;20061;-76
2023/10/19 07:35:31;;;;;;;23.05;12.68;;;8.50;99.90;;;;;;4941332;28;20775;-76
2023/10/19 07:38:03;;;;;;;29.17;13.60;;;8.40;99.90;;;;;;4940707;28;20512;-77
2023/10/19 07:40:31;;;;;;;23.73;12.63;;;8.50;99.90;;;;;;4941335;28;20050;-76
2023/10/19 07:42:59;;;;;;;24.92;12.65;;;8.50;99.90;;;;;;4958637;28;22378;-77
2023/10/19 07:45:26;;;;;;;24.92;12.13;;;8.60;99.90;;;;;;4961365;28;20053;-77
2023/10/19 07:47:53;;;;;;;29.90;12.57;;;8.60;99.90;;;;;;4938923;28;20587;-76
2023/10/19 07:50:22;;;;;;;23.92;12.05;;;8.60;99.90;;;;;;4962842;28;20421;-77
2023/10/19 07:52:53;;;;;;;22.90;11.40;;;8.60;99.90;;;;;;4927158;28;20058;-77
2023/10/19 07:55:24;;;;;;;21.83;10.95;;;8.70;99.90;;;;;;4941672;28;20050;-78
2023/10/19 07:57:53;;;;;;;21.92;10.80;;;8.70;99.90;;;;;;4957297;28;20062;-76
2023/10/19 08:00:23;;;;;;;21.27;11.50;;;8.70;99.90;;;;;;4940288;28;20054;-77
2023/10/19 08:02:51;;;;;;;23.75;10.82;;;8.70;99.90;;;;;;4940016;28;20043;-77
2023/10/19 08:05:18;;;;;;;20.48;9.77;;;8.80;99.90;;;;;;4936198;28;20065;-77
2023/10/19 08:07:49;;;;;;;22.27;12.10;;;8.80;99.90;;;;;;4942125;28;20397;-77
2023/10/19 08:10:17;;;;;;;20.98;11.07;;;8.80;99.90;;;;;;4971568;28;20046;-76
2023/10/19 08:12:49;;;;;;;24.70;12.77;;;8.90;99.90;;;;;;4939857;28;20049;-76
2023/10/19 08:15:17;;;;;;;24.77;11.70;;;8.90;99.90;;;;;;4940051;28;20076;-76
2023/10/19 08:17:55;;;;;;;24.50;12.05;;;8.90;99.90;;;;;;4939630;28;20047;-78
2023/10/19 08:20:23;;;;;;;25.15;12.40;;;8.90;99.90;;;;;;4957104;28;20053;-77
2023/10/19 08:22:59;;;;;;;26.85;12.68;;;9.00;99.90;;;;;;4942481;28;20061;-77
2023/10/19 08:25:29;;;;;;;26.38;12.27;;;9.00;99.90;;;;;;4936006;28;20069;-77
2023/10/19 08:28:01;;;;;;;25.05;13.00;;;9.00;99.90;;;;;;4955293;28;20042;-78
2023/10/19 08:30:28;;;;;;;22.90;11.20;;;9.00;99.90;;;;;;4939841;28;20794;-77
2023/10/19 08:32:57;;;;;;;25.27;11.85;;;9.10;99.90;;;;;;4950764;28;20046;-77
2023/10/19 08:35:26;;;;;;;23.48;10.25;;;9.20;99.90;;;;;;4950153;28;20050;-77
2023/10/19 08:37:56;;;;;;;23.60;11.73;;;9.20;99.90;;;;;;4938942;28;22147;-77
2023/10/19 08:40:26;;;;;;;21.65;11.57;;;9.30;99.90;;;;;;4949198;28;22865;-77
2023/10/19 08:42:55;;;;;;;25.98;11.90;;;9.30;99.90;;;;;;4925881;28;20563;-76
2023/10/19 08:45:22;;;;;;;24.80;12.00;;;9.30;99.90;;;;;;4933104;28;20055;-77
2023/10/19 08:48:01;;;;;;;25.42;13.23;;;9.40;99.90;;;;;;4951660;28;22223;-77
2023/10/19 08:50:33;;;;;;;25.15;12.10;;;9.40;99.90;;;;;;4969735;28;20050;-77
2023/10/19 08:53:05;;;;;;;35.50;17.27;;;9.50;99.90;;;;;;4939108;28;20054;-77
2023/10/19 08:55:35;;;;;;;31.63;15.35;;;9.50;99.90;;;;;;4932975;28;20188;-77
2023/10/19 08:58:17;;;;;;;24.50;12.20;;;9.60;99.90;;;;;;4940185;28;20798;-77
2023/10/19 09:00:56;;;;;;;25.80;12.45;;;9.60;99.90;;;;;;4961568;28;20050;-77
2023/10/19 09:03:25;;;;;;;24.27;11.60;;;9.70;99.90;;;;;;4935478;28;20057;-79
2023/10/19 09:05:54;;;;;;;25.25;13.20;;;9.80;99.90;;;;;;4950691;28;20046;-77
2023/10/19 09:08:22;;;;;;;25.42;11.98;;;9.90;99.90;;;;;;4939236;28;20057;-78
2023/10/19 09:10:53;;;;;;;21.02;12.73;;;10.00;99.90;;;;;;4941275;28;20097;-77
2023/10/19 09:13:22;;;;;;;21.10;10.23;;;10.10;99.90;;;;;;4940872;28;20053;-78
2023/10/19 09:15:55;;;;;;;20.30;10.23;;;10.30;99.90;;;;;;4942932;28;20418;-77
2023/10/19 09:18:28;;;;;;;19.25;9.68;;;10.40;99.90;;;;;;4961179;28;22209;-78
2023/10/19 09:21:02;;;;;;;;;;;10.50;99.90;;;;;;4941391;28;20061;-79
2023/10/19 09:23:43;;;;;;;21.98;11.18;;;10.60;99.90;;;;;;4960572;28;19937;-78
2023/10/19 09:26:12;;;;;;;25.23;12.50;;;10.70;99.90;;;;;;4934505;28;20517;-79
2023/10/19 09:28:39;;;;;;;24.63;12.70;;;10.80;99.90;;;;;;4960624;28;20184;-79
2023/10/19 09:31:10;;;;;;;23.38;11.40;;;10.90;99.90;;;;;;4967969;28;20061;-77
2023/10/19 09:33:41;;;;;;;23.42;11.45;;;11.00;99.90;;;;;;4944747;28;20488;-79
2023/10/19 09:36:12;;;;;;;20.23;10.48;;;11.10;99.90;;;;;;4961012;28;20902;-77
2023/10/19 09:38:44;;;;;;;27.00;14.65;;;11.40;99.90;;;;;;4955479;28;20572;-78
2023/10/19 09:41:12;;;;;;;23.77;11.02;;;11.60;99.90;;;;;;4941802;28;20052;-77
2023/10/19 09:43:46;;;;;;;20.85;11.82;;;11.70;99.90;;;;;;4955928;28;20734;-78
2023/10/19 09:46:27;;;;;;;24.17;11.77;;;11.70;99.90;;;;;;4942499;28;20050;-77
2023/10/19 09:48:55;;;;;;;25.50;12.63;;;11.80;99.90;;;;;;4927291;28;20296;-79
2023/10/19 09:51:24;;;;;;;23.20;12.23;;;11.80;99.90;;;;;;4958098;28;20046;-77
2023/10/19 09:54:20;;;;;;;27.20;13.57;;;11.90;99.90;;;;;;4939599;28;20116;-77
2023/10/19 09:56:55;;;;;;;20.95;11.38;;;12.10;99.90;;;;;;4933406;28;20189;-78
2023/10/19 09:59:32;;;;;;;18.75;9.55;;;12.30;99.90;;;;;;4939578;28;20836;-77
2023/10/19 10:02:13;;;;;;;18.05;10.55;;;12.50;99.90;;;;;;4936595;28;20057;-76
2023/10/19 10:04:45;;;;;;;20.70;10.40;;;12.70;99.90;;;;;;4939701;28;20825;-77
2023/10/19 10:07:12;;;;;;;23.05;11.40;;;12.70;99.90;;;;;;4938842;28;22429;-77
2023/10/19 10:09:45;;;;;;;22.23;10.43;;;12.50;99.90;;;;;;4937388;28;20058;-79
2023/10/19 10:12:21;;;;;;;20.00;9.52;;;12.50;99.90;;;;;;4945079;28;20065;-77
2023/10/19 10:15:08;;;;;;;15.90;7.38;;;12.60;99.90;;;;;;4953445;28;20061;-78
2023/10/19 10:17:37;;;;;;;19.50;9.75;;;12.70;99.90;;;;;;4937413;28;20088;-77
2023/10/19 10:20:28;;;;;;;18.25;10.13;;;12.90;99.90;;;;;;4953579;28;20757;-77
2023/10/19 10:23:17;;;;;;;17.65;8.85;;;13.00;99.90;;;;;;4950631;28;20997;-78
2023/10/19 10:25:48;;;;;;;19.73;10.40;;;12.90;99.90;;;;;;4931484;28;22103;-78
2023/10/19 10:28:16;;;;;;;19.58;10.20;;;12.80;99.90;;;;;;4958970;28;20141;-78
2023/10/19 10:31:22;;;;;;;22.80;10.93;;;12.80;99.90;;;;;;4944075;28;20062;-78
2023/10/19 10:33:51;;;;;;;21.02;9.98;;;13.10;99.90;;;;;;4952794;28;20517;-79
2023/10/19 10:36:19;;;;;;;17.67;10.75;;;13.20;99.90;;;;;;4940305;28;20649;-79
2023/10/19 10:38:48;;;;;;;19.80;11.73;;;13.40;99.90;;;;;;4958077;28;20925;-78
2023/10/19 10:41:22;;;;;;;15.68;9.73;;;13.60;99.90;;;;;;4960896;28;20054;-77
2023/10/19 10:43:57;;;;;;;20.58;10.65;;;13.90;99.90;;;;;;4967469;28;20490;-79
2023/10/19 10:46:28;;;;;;;21.38;12.07;;;13.90;99.90;;;;;;4935446;28;20061;-80
2023/10/19 10:48:56;;;;;;;17.73;9.30;;;14.00;99.90;;;;;;4947361;28;20085;-77
2023/10/19 10:51:31;;;;;;;18.13;10.57;;;14.20;99.90;;;;;;4929280;28;21913;-77
2023/10/19 10:53:58;;;;;;;14.32;8.50;;;14.40;99.90;;;;;;4959986;28;20054;-77
2023/10/19 10:56:25;;;;;;;19.90;11.23;;;14.40;99.90;;;;;;4954026;28;20143;-79
2023/10/19 10:58:54;;;;;;;19.42;10.10;;;14.60;99.90;;;;;;4947033;28;20548;-79
2023/10/19 11:01:32;;;;;;;23.02;10.98;;;14.70;99.90;;;;;;4943389;28;20077;-77
2023/10/19 11:04:10;;;;;;;22.45;11.68;;;14.70;99.90;;;;;;4919591;28;20931;-79
2023/10/19 11:06:57;;;;;;;16.58;9.98;;;14.60;99.90;;;;;;4925249;28;20061;-79
2023/10/19 11:09:24;;;;;;;18.63;10.70;;;14.50;99.90;;;;;;4910690;28;20077;-81
2023/10/19 11:11:54;;;;;;;20.75;11.20;;;14.50;99.90;;;;;;4938828;28;20113;-81
2023/10/19 11:14:26;;;;;;;19.40;10.85;;;14.70;99.90;;;;;;4911592;28;20051;-78
2023/10/19 11:16:53;;;;;;;21.90;11.73;;;14.70;99.90;;;;;;4936338;28;20414;-78
2023/10/19 11:19:21;;;;;;;20.55;11.10;;;14.90;99.90;;;;;;4913100;28;20058;-79
2023/10/19 11:21:54;;;;;;;18.48;11.73;;;14.80;99.90;;;;;;4950256;28;20108;-79
2023/10/19 11:24:29;;;;;;;24.02;12.55;;;14.60;99.90;;;;;;4935975;28;20047;-78
2023/10/19 11:26:57;;;;;;;18.52;11.05;;;14.50;99.90;;;;;;4939006;28;20110;-79
2023/10/19 11:29:25;;;;;;;20.80;12.10;;;14.50;99.90;;;;;;4915660;28;22323;-81
2023/10/19 11:32:02;;;;;;;21.38;11.30;;;14.60;99.90;;;;;;4945707;28;20065;-79
2023/10/19 11:34:29;;;;;;;25.27;11.30;;;14.60;99.90;;;;;;4928089;28;20063;-80
2023/10/19 11:36:59;;;;;;;20.58;11.13;;;14.70;99.90;;;;;;4942817;28;20911;-82
2023/10/19 11:39:28;;;;;;;17.65;10.30;;;14.80;99.90;;;;;;4967228;28;20048;-78
2023/10/19 11:41:55;;;;;;;17.63;10.90;;;14.80;99.90;;;;;;4944170;28;20120;-78
2023/10/19 11:44:22;;;;;;;19.60;11.57;;;14.80;99.90;;;;;;4946165;28;20165;-82
2023/10/19 11:46:50;;;;;;;20.90;12.90;;;14.70;99.90;;;;;;4940630;28;20145;-83
2023/10/19 11:49:17;;;;;;;24.02;13.85;;;14.60;99.90;;;;;;4946451;28;20560;-80
2023/10/19 11:51:44;;;;;;;17.95;11.38;;;14.60;99.90;;;;;;4938489;28;20051;-80
2023/10/19 11:54:12;;;;;;;23.05;13.20;;;14.70;99.90;;;;;;4949217;28;20844;-79
2023/10/19 11:56:39;;;;;;;22.88;13.50;;;14.70;99.90;;;;;;4952293;28;20054;-79
2023/10/19 11:59:07;;;;;;;25.27;14.52;;;14.70;99.90;;;;;;4940341;28;20133;-82
2023/10/19 12:01:34;;;;;;;24.23;14.90;;;14.70;99.90;;;;;;4944805;28;20046;-80
2023/10/19 12:04:02;;;;;;;24.55;13.40;;;14.70;99.90;;;;;;4942481;28;20070;-78
2023/10/19 12:06:31;;;;;;;21.45;13.15;;;14.70;99.90;;;;;;4927262;28;20058;-81
2023/10/19 12:09:14;;;;;;;23.92;13.35;;;14.70;99.90;;;;;;4924713;28;20061;-79
2023/10/19 12:11:42;;;;;;;29.00;15.02;;;14.70;99.90;;;;;;4937462;28;20054;-80
2023/10/19 12:14:14;;;;;;;24.52;13.57;;;14.70;99.90;;;;;;4925397;28;20556;-79
2023/10/19 12:16:42;;;;;;;21.10;12.43;;;14.70;99.90;;;;;;4940678;28;20100;-80
2023/10/19 12:19:09;;;;;;;19.60;11.43;;;14.80;99.90;;;;;;4952680;28;20035;-78
2023/10/19 12:21:41;;;;;;;23.88;14.98;;;14.80;99.90;;;;;;4938763;28;20042;-82
2023/10/19 12:24:08;;;;;;;28.38;15.77;;;14.90;99.90;;;;;;4936346;28;21876;-81
2023/10/19 12:26:35;;;;;;;26.38;15.02;;;14.80;99.90;;;;;;4925062;28;20054;-78
2023/10/19 12:29:06;;;;;;;22.05;13.15;;;14.90;99.90;;;;;;4955111;28;20042;-82
2023/10/19 12:31:34;;;;;;;28.60;15.23;;;15.00;99.90;;;;;;4959242;28;20591;-82
2023/10/19 12:34:01;;;;;;;22.48;12.52;;;15.00;99.90;;;;;;4940018;28;20046;-81
2023/10/19 12:36:31;;;;;;;19.17;12.25;;;15.00;99.90;;;;;;4923514;28;20069;-80
2023/10/19 12:38:58;;;;;;;25.25;12.32;;;15.10;99.90;;;;;;4939140;28;20204;-77
2023/10/19 12:41:27;;;;;;;23.73;14.23;;;15.10;99.90;;;;;;4946892;28;20038;-80
2023/10/19 12:43:58;;;;;;;23.42;12.98;;;15.00;99.90;;;;;;4949695;28;20206;-78
2023/10/19 12:46:29;;;;;;;18.08;10.43;;;15.00;99.90;;;;;;4939063;28;20051;-77
2023/10/19 12:48:58;;;;;;;18.35;10.30;;;15.10;99.90;;;;;;4943077;28;20061;-77
2023/10/19 12:51:25;;;;;;;22.33;12.38;;;15.00;99.90;;;;;;4944822;28;20082;-78
2023/10/19 12:53:53;;;;;;;20.80;12.82;;;15.00;99.90;;;;;;4943555;28;20197;-78
2023/10/19 12:56:24;;;;;;;25.20;13.05;;;14.90;99.90;;;;;;4942653;28;20476;-77
2023/10/19 12:58:51;;;;;;;21.17;12.25;;;14.90;99.90;;;;;;4943973;28;20046;-79
2023/10/19 13:01:19;;;;;;;20.15;13.05;;;15.00;99.90;;;;;;4951855;28;22185;-80
2023/10/19 13:03:49;;;;;;;20.98;11.18;;;15.10;99.90;;;;;;4961749;28;20161;-78
2023/10/19 13:06:17;;;;;;;22.98;12.20;;;15.10;99.90;;;;;;4942753;28;20060;-78
2023/10/19 13:08:44;;;;;;;17.13;11.00;;;15.10;99.90;;;;;;4925317;28;20042;-78
2023/10/19 13:11:14;;;;;;;10.80;6.53;;;15.20;99.90;;;;;;4931345;28;20788;-77
2023/10/19 13:13:45;;;;;;;17.73;9.10;;;15.30;99.90;;;;;;4953535;28;20050;-78
2023/10/19 13:16:15;;;;;;;13.75;6.80;;;15.50;99.90;;;;;;4964782;28;20085;-77